sensor_id;sensor_type;location;lat;lon;timestamp;pressure;altitude;pressure_sealevel;temperature;humidity
35848;BME280;22332;51.954;20.118;2023-04-22T00:01:59;100184.96;;;6.18;54.20
35848;BME280;22332;51.954;20.118;2023-04-22T00:05:06;100180.52;;;6.05;54.51
35848;BME280;22332;51.954;20.118;2023-04-22T00:08:12;100177.48;;;6.03;54.60
35848;BME280;22332;51.954;20.118;2023-04-22T00:11:18;100180.67;;;5.99;54.86
35848;BME280;22332;51.954;20.118;2023-04-22T00:14:23;100180.97;;;5.95;54.80
35848;BME280;22332;51.954;20.118;2023-04-22T00:17:29;100174.62;;;5.93;54.94
35848;BME280;22332;51.954;20.118;2023-04-22T00:20:34;100168.58;;;5.91;55.02
35848;BME280;22332;51.954;20.118;2023-04-22T00:23:40;100167.25;;;5.92;55.28
35848;BME280;22332;51.954;20.118;2023-04-22T00:26:48;100163.89;;;5.90;55.16
35848;BME280;22332;51.954;20.118;2023-04-22T00:29:54;100164.66;;;5.87;55.15
35848;BME280;22332;51.954;20.118;2023-04-22T00:33:00;100170.59;;;5.83;55.22
35848;BME280;22332;51.954;20.118;2023-04-22T00:36:06;100167.67;;;5.78;55.31
35848;BME280;22332;51.954;20.118;2023-04-22T00:39:12;100165.78;;;5.73;55.38
35848;BME280;22332;51.954;20.118;2023-04-22T00:42:18;100165.19;;;5.69;55.47
35848;BME280;22332;51.954;20.118;2023-04-22T00:45:26;100164.41;;;5.66;55.61
35848;BME280;22332;51.954;20.118;2023-04-22T00:48:32;100162.81;;;5.64;55.53
35848;BME280;22332;51.954;20.118;2023-04-22T00:51:37;100166.14;;;5.62;55.50
35848;BME280;22332;51.954;20.118;2023-04-22T00:54:43;100165.04;;;5.54;55.61
35848;BME280;22332;51.954;20.118;2023-04-22T00:57:52;100165.21;;;5.49;55.61
35848;BME280;22332;51.954;20.118;2023-04-22T01:00:59;100163.19;;;5.46;55.86
35848;BME280;22332;51.954;20.118;2023-04-22T01:04:05;100164.28;;;5.43;55.82
35848;BME280;22332;51.954;20.118;2023-04-22T01:07:10;100163.80;;;5.43;56.00
35848;BME280;22332;51.954;20.118;2023-04-22T01:10:17;100165.60;;;5.40;55.91
35848;BME280;22332;51.954;20.118;2023-04-22T01:13:22;100160.75;;;5.37;56.00
35848;BME280;22332;51.954;20.118;2023-04-22T01:16:28;100163.77;;;5.34;56.17
35848;BME280;22332;51.954;20.118;2023-04-22T01:19:37;100162.30;;;5.33;56.22
35848;BME280;22332;51.954;20.118;2023-04-22T01:22:44;100160.92;;;5.30;56.24
35848;BME280;22332;51.954;20.118;2023-04-22T01:25:51;100156.74;;;5.27;56.29
35848;BME280;22332;51.954;20.118;2023-04-22T01:28:57;100163.77;;;5.21;56.25
35848;BME280;22332;51.954;20.118;2023-04-22T01:32:03;100162.55;;;5.17;56.56
35848;BME280;22332;51.954;20.118;2023-04-22T01:35:09;100164.25;;;5.10;56.38
35848;BME280;22332;51.954;20.118;2023-04-22T01:38:15;100162.87;;;5.07;56.57
35848;BME280;22332;51.954;20.118;2023-04-22T01:41:21;100169.25;;;5.05;56.58
35848;BME280;22332;51.954;20.118;2023-04-22T01:44:28;100166.19;;;5.01;56.83
35848;BME280;22332;51.954;20.118;2023-04-22T01:47:33;100166.25;;;5.00;56.74
35848;BME280;22332;51.954;20.118;2023-04-22T01:50:39;100168.30;;;4.99;56.85
35848;BME280;22332;51.954;20.118;2023-04-22T01:53:45;100165.45;;;4.97;56.83
35848;BME280;22332;51.954;20.118;2023-04-22T01:56:54;100161.77;;;4.92;56.79
35848;BME280;22332;51.954;20.118;2023-04-22T02:00:02;100162.15;;;4.87;57.02
35848;BME280;22332;51.954;20.118;2023-04-22T02:03:16;100158.86;;;4.87;57.12
35848;BME280;22332;51.954;20.118;2023-04-22T02:06:22;100160.08;;;4.84;57.02
35848;BME280;22332;51.954;20.118;2023-04-22T02:09:27;100163.45;;;4.82;57.10
35848;BME280;22332;51.954;20.118;2023-04-22T02:12:33;100160.46;;;4.82;57.22
35848;BME280;22332;51.954;20.118;2023-04-22T02:15:38;100161.20;;;4.79;57.05
35848;BME280;22332;51.954;20.118;2023-04-22T02:18:44;100157.30;;;4.75;57.21
35848;BME280;22332;51.954;20.118;2023-04-22T02:21:50;100154.11;;;4.72;57.32
35848;BME280;22332;51.954;20.118;2023-04-22T02:24:55;100153.09;;;4.70;57.35
35848;BME280;22332;51.954;20.118;2023-04-22T02:28:01;100151.89;;;4.65;57.32
35848;BME280;22332;51.954;20.118;2023-04-22T02:31:06;100155.79;;;4.60;57.45
35848;BME280;22332;51.954;20.118;2023-04-22T02:34:12;100150.45;;;4.58;57.49
35848;BME280;22332;51.954;20.118;2023-04-22T02:37:17;100157.77;;;4.57;57.74
35848;BME280;22332;51.954;20.118;2023-04-22T02:40:24;100152.58;;;4.56;57.58
35848;BME280;22332;51.954;20.118;2023-04-22T02:43:30;100153.45;;;4.53;57.59
35848;BME280;22332;51.954;20.118;2023-04-22T02:46:35;100152.98;;;4.50;57.65
35848;BME280;22332;51.954;20.118;2023-04-22T02:49:40;100147.29;;;4.47;57.66
35848;BME280;22332;51.954;20.118;2023-04-22T02:52:47;100147.85;;;4.44;57.64
35848;BME280;22332;51.954;20.118;2023-04-22T02:55:52;100145.77;;;4.39;57.80
35848;BME280;22332;51.954;20.118;2023-04-22T02:58:59;100145.83;;;4.36;57.86
35848;BME280;22332;51.954;20.118;2023-04-22T03:02:04;100149.92;;;4.35;57.91
35848;BME280;22332;51.954;20.118;2023-04-22T03:05:48;100147.70;;;4.31;57.99
35848;BME280;22332;51.954;20.118;2023-04-22T03:08:54;100149.70;;;4.31;58.11
35848;BME280;22332;51.954;20.118;2023-04-22T03:12:00;100149.80;;;4.29;58.11
35848;BME280;22332;51.954;20.118;2023-04-22T03:15:07;100149.73;;;4.28;58.10
35848;BME280;22332;51.954;20.118;2023-04-22T03:18:13;100145.45;;;4.24;58.18
35848;BME280;22332;51.954;20.118;2023-04-22T03:21:19;100146.48;;;4.22;58.31
35848;BME280;22332;51.954;20.118;2023-04-22T03:24:25;100149.60;;;4.20;58.48
35848;BME280;22332;51.954;20.118;2023-04-22T03:27:31;100156.96;;;4.21;58.38
35848;BME280;22332;51.954;20.118;2023-04-22T03:30:37;100158.28;;;4.19;58.43
35848;BME280;22332;51.954;20.118;2023-04-22T03:33:43;100160.18;;;4.18;58.51
35848;BME280;22332;51.954;20.118;2023-04-22T03:36:56;100156.39;;;4.17;58.66
35848;BME280;22332;51.954;20.118;2023-04-22T03:40:04;100154.19;;;4.18;58.66
35848;BME280;22332;51.954;20.118;2023-04-22T03:43:11;100156.21;;;4.17;58.55
35848;BME280;22332;51.954;20.118;2023-04-22T03:46:17;100164.14;;;4.19;58.73
35848;BME280;22332;51.954;20.118;2023-04-22T03:49:30;100167.20;;;4.21;58.86
35848;BME280;22332;51.954;20.118;2023-04-22T03:52:36;100165.77;;;4.23;58.82
35848;BME280;22332;51.954;20.118;2023-04-22T03:55:43;100168.48;;;4.24;58.85
35848;BME280;22332;51.954;20.118;2023-04-22T03:58:49;100171.05;;;4.26;58.82
35848;BME280;22332;51.954;20.118;2023-04-22T04:01:55;100166.71;;;4.27;59.13
35848;BME280;22332;51.954;20.118;2023-04-22T04:05:03;100168.92;;;4.30;59.13
35848;BME280;22332;51.954;20.118;2023-04-22T04:08:09;100168.98;;;4.37;59.33
35848;BME280;22332;51.954;20.118;2023-04-22T04:11:15;100172.55;;;4.45;59.29
35848;BME280;22332;51.954;20.118;2023-04-22T04:14:21;100177.02;;;4.54;59.36
35848;BME280;22332;51.954;20.118;2023-04-22T04:17:29;100170.42;;;4.64;59.42
35848;BME280;22332;51.954;20.118;2023-04-22T04:20:37;100168.83;;;4.76;59.60
35848;BME280;22332;51.954;20.118;2023-04-22T04:23:42;100169.00;;;4.92;59.56
35848;BME280;22332;51.954;20.118;2023-04-22T04:26:50;100168.76;;;5.06;59.54
35848;BME280;22332;51.954;20.118;2023-04-22T04:29:59;100168.04;;;5.31;59.75
35848;BME280;22332;51.954;20.118;2023-04-22T04:33:16;100167.02;;;5.60;59.64
35848;BME280;22332;51.954;20.118;2023-04-22T04:36:22;100167.21;;;5.82;59.61
35848;BME280;22332;51.954;20.118;2023-04-22T04:39:30;100164.83;;;6.07;60.02
35848;BME280;22332;51.954;20.118;2023-04-22T04:42:36;100169.35;;;6.36;59.88
35848;BME280;22332;51.954;20.118;2023-04-22T04:45:44;100175.69;;;6.61;59.77
35848;BME280;22332;51.954;20.118;2023-04-22T04:48:51;100172.86;;;6.88;59.87
35848;BME280;22332;51.954;20.118;2023-04-22T04:51:59;100170.03;;;7.13;59.58
35848;BME280;22332;51.954;20.118;2023-04-22T04:55:06;100168.98;;;7.35;59.76
35848;BME280;22332;51.954;20.118;2023-04-22T04:58:12;100166.41;;;7.59;60.08
35848;BME280;22332;51.954;20.118;2023-04-22T05:01:18;100162.58;;;7.80;59.99
35848;BME280;22332;51.954;20.118;2023-04-22T05:04:24;100159.04;;;8.00;59.94
35848;BME280;22332;51.954;20.118;2023-04-22T05:07:29;100159.30;;;8.20;60.11
35848;BME280;22332;51.954;20.118;2023-04-22T05:10:36;100155.79;;;8.41;60.30
35848;BME280;22332;51.954;20.118;2023-04-22T05:13:42;100155.40;;;8.61;60.33
35848;BME280;22332;51.954;20.118;2023-04-22T05:16:49;100154.77;;;8.81;60.55
35848;BME280;22332;51.954;20.118;2023-04-22T05:19:56;100158.33;;;9.00;60.63
35848;BME280;22332;51.954;20.118;2023-04-22T05:23:01;100152.33;;;9.18;60.81
35848;BME280;22332;51.954;20.118;2023-04-22T05:26:07;100154.86;;;9.38;60.96
35848;BME280;22332;51.954;20.118;2023-04-22T05:29:15;100151.45;;;9.57;60.76
35848;BME280;22332;51.954;20.118;2023-04-22T05:32:21;100150.23;;;9.73;60.85
35848;BME280;22332;51.954;20.118;2023-04-22T05:35:27;100154.33;;;9.82;60.68
35848;BME280;22332;51.954;20.118;2023-04-22T05:38:32;100154.29;;;9.88;60.85
35848;BME280;22332;51.954;20.118;2023-04-22T05:41:39;100152.90;;;9.93;60.43
35848;BME280;22332;51.954;20.118;2023-04-22T05:44:46;100151.90;;;10.00;60.39
35848;BME280;22332;51.954;20.118;2023-04-22T05:47:52;100148.73;;;10.08;60.18
35848;BME280;22332;51.954;20.118;2023-04-22T05:50:58;100149.44;;;10.14;60.76
35848;BME280;22332;51.954;20.118;2023-04-22T05:54:06;100148.75;;;10.12;60.58
35848;BME280;22332;51.954;20.118;2023-04-22T05:57:11;100151.34;;;10.19;60.48
35848;BME280;22332;51.954;20.118;2023-04-22T06:00:18;100151.31;;;10.29;60.27
35848;BME280;22332;51.954;20.118;2023-04-22T06:03:28;100150.04;;;10.38;60.09
35848;BME280;22332;51.954;20.118;2023-04-22T06:06:34;100147.89;;;10.47;59.68
35848;BME280;22332;51.954;20.118;2023-04-22T06:09:39;100149.53;;;10.54;59.98
35848;BME280;22332;51.954;20.118;2023-04-22T06:12:45;100153.33;;;10.62;59.68
35848;BME280;22332;51.954;20.118;2023-04-22T06:15:50;100151.66;;;10.67;60.08
35848;BME280;22332;51.954;20.118;2023-04-22T06:18:56;100151.34;;;10.70;60.42
35848;BME280;22332;51.954;20.118;2023-04-22T06:22:02;100150.42;;;10.80;60.44
35848;BME280;22332;51.954;20.118;2023-04-22T06:25:08;100150.63;;;10.89;60.38
35848;BME280;22332;51.954;20.118;2023-04-22T06:28:15;100148.83;;;10.96;60.29
35848;BME280;22332;51.954;20.118;2023-04-22T06:31:25;100148.14;;;11.04;60.28
35848;BME280;22332;51.954;20.118;2023-04-22T06:34:43;100144.24;;;11.13;60.07
35848;BME280;22332;51.954;20.118;2023-04-22T06:37:49;100147.71;;;11.22;59.81
35848;BME280;22332;51.954;20.118;2023-04-22T06:40:54;100146.98;;;11.32;59.64
35848;BME280;22332;51.954;20.118;2023-04-22T06:44:03;100147.45;;;11.45;59.88
35848;BME280;22332;51.954;20.118;2023-04-22T06:47:09;100144.63;;;11.55;59.44
35848;BME280;22332;51.954;20.118;2023-04-22T06:50:19;100146.46;;;11.65;59.40
35848;BME280;22332;51.954;20.118;2023-04-22T06:53:29;100141.87;;;11.74;59.32
35848;BME280;22332;51.954;20.118;2023-04-22T06:56:35;100144.13;;;11.83;58.97
35848;BME280;22332;51.954;20.118;2023-04-22T06:59:41;100141.41;;;11.94;58.47
35848;BME280;22332;51.954;20.118;2023-04-22T07:02:47;100145.96;;;12.03;57.93
35848;BME280;22332;51.954;20.118;2023-04-22T07:05:52;100147.55;;;12.13;58.20
35848;BME280;22332;51.954;20.118;2023-04-22T07:08:58;100144.77;;;12.23;58.19
35848;BME280;22332;51.954;20.118;2023-04-22T07:12:04;100145.81;;;12.34;58.02
35848;BME280;22332;51.954;20.118;2023-04-22T07:15:11;100149.27;;;12.45;57.83
35848;BME280;22332;51.954;20.118;2023-04-22T07:18:16;100148.98;;;12.54;57.75
35848;BME280;22332;51.954;20.118;2023-04-22T07:21:22;100149.39;;;12.64;57.00
35848;BME280;22332;51.954;20.118;2023-04-22T07:24:27;100150.73;;;12.72;57.12
35848;BME280;22332;51.954;20.118;2023-04-22T07:27:33;100153.13;;;12.81;57.08
35848;BME280;22332;51.954;20.118;2023-04-22T07:30:38;100148.10;;;12.90;57.13
35848;BME280;22332;51.954;20.118;2023-04-22T07:33:44;100143.42;;;12.98;56.94
35848;BME280;22332;51.954;20.118;2023-04-22T07:36:49;100143.51;;;13.07;56.63
35848;BME280;22332;51.954;20.118;2023-04-22T07:39:56;100142.58;;;13.15;56.73
35848;BME280;22332;51.954;20.118;2023-04-22T07:43:02;100139.27;;;13.26;56.31
35848;BME280;22332;51.954;20.118;2023-04-22T07:46:09;100141.91;;;13.37;56.23
35848;BME280;22332;51.954;20.118;2023-04-22T07:49:14;100141.40;;;13.48;56.25
35848;BME280;22332;51.954;20.118;2023-04-22T07:52:20;100135.83;;;13.58;56.10
35848;BME280;22332;51.954;20.118;2023-04-22T07:55:26;100141.16;;;13.67;56.20
35848;BME280;22332;51.954;20.118;2023-04-22T07:58:31;100137.54;;;13.76;55.53
35848;BME280;22332;51.954;20.118;2023-04-22T08:01:36;100141.70;;;13.85;54.87
35848;BME280;22332;51.954;20.118;2023-04-22T08:04:42;100138.30;;;13.97;55.14
35848;BME280;22332;51.954;20.118;2023-04-22T08:07:47;100136.83;;;14.08;55.01
35848;BME280;22332;51.954;20.118;2023-04-22T08:10:53;100140.90;;;14.20;55.02
35848;BME280;22332;51.954;20.118;2023-04-22T08:13:59;100140.04;;;14.30;54.62
35848;BME280;22332;51.954;20.118;2023-04-22T08:17:04;100141.33;;;14.42;54.61
35848;BME280;22332;51.954;20.118;2023-04-22T08:20:10;100142.73;;;14.52;53.17
35848;BME280;22332;51.954;20.118;2023-04-22T08:23:19;100139.31;;;14.61;53.62
35848;BME280;22332;51.954;20.118;2023-04-22T08:26:25;100138.94;;;14.67;53.61
35848;BME280;22332;51.954;20.118;2023-04-22T08:29:31;100135.62;;;14.74;53.62
35848;BME280;22332;51.954;20.118;2023-04-22T08:32:37;100138.25;;;14.83;51.14
35848;BME280;22332;51.954;20.118;2023-04-22T08:35:42;100133.48;;;14.95;51.72
35848;BME280;22332;51.954;20.118;2023-04-22T08:38:48;100131.20;;;15.04;50.55
35848;BME280;22332;51.954;20.118;2023-04-22T08:41:54;100130.40;;;15.16;48.92
35848;BME280;22332;51.954;20.118;2023-04-22T08:45:02;100131.28;;;15.26;49.28
35848;BME280;22332;51.954;20.118;2023-04-22T08:48:09;100129.71;;;15.33;49.19
35848;BME280;22332;51.954;20.118;2023-04-22T08:51:17;100133.13;;;15.38;47.75
35848;BME280;22332;51.954;20.118;2023-04-22T08:54:23;100135.61;;;15.45;47.61
35848;BME280;22332;51.954;20.118;2023-04-22T08:57:32;100133.08;;;15.53;46.55
35848;BME280;22332;51.954;20.118;2023-04-22T09:00:38;100126.95;;;15.59;47.59
35848;BME280;22332;51.954;20.118;2023-04-22T09:03:44;100128.69;;;15.64;48.29
35848;BME280;22332;51.954;20.118;2023-04-22T09:06:50;100126.38;;;15.67;47.04
35848;BME280;22332;51.954;20.118;2023-04-22T09:09:57;100125.13;;;15.71;47.55
35848;BME280;22332;51.954;20.118;2023-04-22T09:13:03;100120.52;;;15.79;45.85
35848;BME280;22332;51.954;20.118;2023-04-22T09:16:09;100120.56;;;15.86;46.81
35848;BME280;22332;51.954;20.118;2023-04-22T09:19:15;100115.76;;;15.92;47.14
35848;BME280;22332;51.954;20.118;2023-04-22T09:22:21;100114.38;;;15.97;46.83
35848;BME280;22332;51.954;20.118;2023-04-22T09:25:28;100117.27;;;16.04;46.13
35848;BME280;22332;51.954;20.118;2023-04-22T09:28:36;100114.58;;;16.09;47.20
35848;BME280;22332;51.954;20.118;2023-04-22T09:31:42;100111.10;;;16.13;46.29
35848;BME280;22332;51.954;20.118;2023-04-22T09:34:53;100113.73;;;16.20;45.65
35848;BME280;22332;51.954;20.118;2023-04-22T09:38:00;100105.63;;;16.22;46.92
35848;BME280;22332;51.954;20.118;2023-04-22T09:41:10;100102.69;;;16.23;45.75
35848;BME280;22332;51.954;20.118;2023-04-22T09:44:17;100100.37;;;16.27;44.27
35848;BME280;22332;51.954;20.118;2023-04-22T09:47:23;100100.02;;;16.34;45.48
35848;BME280;22332;51.954;20.118;2023-04-22T09:50:29;100091.01;;;16.37;46.42
35848;BME280;22332;51.954;20.118;2023-04-22T09:53:37;100084.73;;;16.45;46.22
35848;BME280;22332;51.954;20.118;2023-04-22T09:56:46;100082.99;;;16.52;45.59
35848;BME280;22332;51.954;20.118;2023-04-22T09:59:52;100082.96;;;16.61;44.71
35848;BME280;22332;51.954;20.118;2023-04-22T10:02:59;100081.92;;;16.63;45.19
35848;BME280;22332;51.954;20.118;2023-04-22T10:06:06;100080.84;;;16.63;44.44
35848;BME280;22332;51.954;20.118;2023-04-22T10:09:11;100081.05;;;16.64;44.11
35848;BME280;22332;51.954;20.118;2023-04-22T10:12:17;100083.65;;;16.68;42.90
35848;BME280;22332;51.954;20.118;2023-04-22T10:15:23;100077.21;;;16.75;42.32
35848;BME280;22332;51.954;20.118;2023-04-22T10:18:33;100078.38;;;16.80;41.80
35848;BME280;22332;51.954;20.118;2023-04-22T10:21:40;100076.48;;;16.79;39.45
35848;BME280;22332;51.954;20.118;2023-04-22T10:24:47;100076.48;;;16.76;38.74
35848;BME280;22332;51.954;20.118;2023-04-22T10:28:04;100072.69;;;16.79;41.74
35848;BME280;22332;51.954;20.118;2023-04-22T10:31:20;100072.84;;;16.85;42.25
35848;BME280;22332;51.954;20.118;2023-04-22T10:34:26;100065.27;;;16.87;42.72
35848;BME280;22332;51.954;20.118;2023-04-22T10:37:35;100056.67;;;16.94;43.08
35848;BME280;22332;51.954;20.118;2023-04-22T10:40:59;100063.29;;;17.00;42.54
35848;BME280;22332;51.954;20.118;2023-04-22T10:44:07;100061.39;;;16.99;40.91
35848;BME280;22332;51.954;20.118;2023-04-22T10:47:24;100058.45;;;17.05;40.56
35848;BME280;22332;51.954;20.118;2023-04-22T10:50:32;100057.16;;;17.09;40.53
35848;BME280;22332;51.954;20.118;2023-04-22T10:53:37;100053.48;;;17.12;41.03
35848;BME280;22332;51.954;20.118;2023-04-22T10:57:03;100050.29;;;17.13;41.83
35848;BME280;22332;51.954;20.118;2023-04-22T11:00:37;100041.38;;;17.17;41.80
35848;BME280;22332;51.954;20.118;2023-04-22T11:03:44;100046.99;;;17.20;41.48
35848;BME280;22332;51.954;20.118;2023-04-22T11:07:13;100046.98;;;17.24;40.36
35848;BME280;22332;51.954;20.118;2023-04-22T11:10:34;100041.52;;;17.29;40.89
35848;BME280;22332;51.954;20.118;2023-04-22T11:13:43;100039.83;;;17.31;40.40
35848;BME280;22332;51.954;20.118;2023-04-22T11:16:54;100037.88;;;17.33;39.34
35848;BME280;22332;51.954;20.118;2023-04-22T11:20:00;100037.76;;;17.36;39.98
35848;BME280;22332;51.954;20.118;2023-04-22T11:23:05;100033.73;;;17.32;40.36
35848;BME280;22332;51.954;20.118;2023-04-22T11:26:11;100033.88;;;17.25;40.58
35848;BME280;22332;51.954;20.118;2023-04-22T11:29:16;100028.36;;;17.26;40.43
35848;BME280;22332;51.954;20.118;2023-04-22T11:32:22;100025.33;;;17.29;40.18
35848;BME280;22332;51.954;20.118;2023-04-22T11:35:30;100022.77;;;17.32;40.41
35848;BME280;22332;51.954;20.118;2023-04-22T11:38:36;100013.69;;;17.34;40.65
35848;BME280;22332;51.954;20.118;2023-04-22T11:41:42;100019.30;;;17.39;39.99
35848;BME280;22332;51.954;20.118;2023-04-22T11:44:48;100016.91;;;17.46;39.15
35848;BME280;22332;51.954;20.118;2023-04-22T11:47:55;100019.50;;;17.54;38.54
35848;BME280;22332;51.954;20.118;2023-04-22T11:51:11;100014.57;;;17.54;38.12
35848;BME280;22332;51.954;20.118;2023-04-22T11:54:16;100014.50;;;17.57;38.57
35848;BME280;22332;51.954;20.118;2023-04-22T11:57:21;100015.70;;;17.62;38.81
35848;BME280;22332;51.954;20.118;2023-04-22T12:00:33;100012.56;;;17.70;38.29
35848;BME280;22332;51.954;20.118;2023-04-22T12:03:40;100014.98;;;17.77;37.87
35848;BME280;22332;51.954;20.118;2023-04-22T12:06:46;100007.59;;;17.82;39.02
35848;BME280;22332;51.954;20.118;2023-04-22T12:09:55;100010.79;;;17.82;37.17
35848;BME280;22332;51.954;20.118;2023-04-22T12:13:01;100010.45;;;17.82;38.57
35848;BME280;22332;51.954;20.118;2023-04-22T12:16:11;100005.16;;;17.84;38.89
35848;BME280;22332;51.954;20.118;2023-04-22T12:19:23;100007.29;;;17.85;36.45
35848;BME280;22332;51.954;20.118;2023-04-22T12:22:29;100003.39;;;17.88;37.36
35848;BME280;22332;51.954;20.118;2023-04-22T12:25:36;100005.19;;;17.94;37.85
35848;BME280;22332;51.954;20.118;2023-04-22T12:28:43;100000.81;;;17.98;38.54
35848;BME280;22332;51.954;20.118;2023-04-22T12:31:48;99998.25;;;18.01;38.30
35848;BME280;22332;51.954;20.118;2023-04-22T12:34:54;99998.79;;;18.01;37.89
35848;BME280;22332;51.954;20.118;2023-04-22T12:38:00;99991.31;;;18.02;38.27
35848;BME280;22332;51.954;20.118;2023-04-22T12:41:07;99994.75;;;18.03;38.22
35848;BME280;22332;51.954;20.118;2023-04-22T12:44:12;99991.14;;;18.02;37.16
35848;BME280;22332;51.954;20.118;2023-04-22T12:47:18;99987.48;;;18.03;38.56
35848;BME280;22332;51.954;20.118;2023-04-22T12:50:23;99983.04;;;18.09;38.36
35848;BME280;22332;51.954;20.118;2023-04-22T12:53:29;99979.88;;;18.11;38.36
35848;BME280;22332;51.954;20.118;2023-04-22T12:56:35;99975.88;;;18.13;38.20
35848;BME280;22332;51.954;20.118;2023-04-22T12:59:40;99969.19;;;18.16;36.99
35848;BME280;22332;51.954;20.118;2023-04-22T13:02:47;99966.18;;;18.22;37.78
35848;BME280;22332;51.954;20.118;2023-04-22T13:05:53;99962.32;;;18.29;37.69
35848;BME280;22332;51.954;20.118;2023-04-22T13:08:59;99965.60;;;18.32;37.61
35848;BME280;22332;51.954;20.118;2023-04-22T13:12:05;99960.71;;;18.37;37.68
35848;BME280;22332;51.954;20.118;2023-04-22T13:15:11;99960.52;;;18.37;35.97
35848;BME280;22332;51.954;20.118;2023-04-22T13:18:17;99962.89;;;18.35;36.29
35848;BME280;22332;51.954;20.118;2023-04-22T13:21:22;99959.31;;;18.34;36.08
35848;BME280;22332;51.954;20.118;2023-04-22T13:24:28;99957.20;;;18.34;35.42
35848;BME280;22332;51.954;20.118;2023-04-22T13:27:33;99949.80;;;18.36;35.63
35848;BME280;22332;51.954;20.118;2023-04-22T13:30:39;99949.39;;;18.34;36.66
35848;BME280;22332;51.954;20.118;2023-04-22T13:33:45;99941.91;;;18.33;36.22
35848;BME280;22332;51.954;20.118;2023-04-22T13:36:51;99944.31;;;18.34;36.02
35848;BME280;22332;51.954;20.118;2023-04-22T13:39:56;99940.58;;;18.35;36.35
35848;BME280;22332;51.954;20.118;2023-04-22T13:43:02;99941.60;;;18.37;36.29
35848;BME280;22332;51.954;20.118;2023-04-22T13:46:07;99938.11;;;18.38;36.76
35848;BME280;22332;51.954;20.118;2023-04-22T13:49:13;99935.11;;;18.40;37.02
35848;BME280;22332;51.954;20.118;2023-04-22T13:52:19;99938.46;;;18.43;36.81
35848;BME280;22332;51.954;20.118;2023-04-22T13:55:24;99934.00;;;18.50;37.39
35848;BME280;22332;51.954;20.118;2023-04-22T13:58:30;99934.44;;;18.56;37.43
35848;BME280;22332;51.954;20.118;2023-04-22T14:01:36;99932.89;;;18.58;37.51
35848;BME280;22332;51.954;20.118;2023-04-22T14:04:42;99932.67;;;18.60;37.55
35848;BME280;22332;51.954;20.118;2023-04-22T14:07:47;99929.80;;;18.62;37.35
35848;BME280;22332;51.954;20.118;2023-04-22T14:10:53;99927.77;;;18.63;37.29
35848;BME280;22332;51.954;20.118;2023-04-22T14:13:58;99923.89;;;18.66;37.50
35848;BME280;22332;51.954;20.118;2023-04-22T14:17:04;99924.99;;;18.68;37.59
35848;BME280;22332;51.954;20.118;2023-04-22T14:20:10;99920.92;;;18.70;37.74
35848;BME280;22332;51.954;20.118;2023-04-22T14:23:16;99918.09;;;18.70;37.49
35848;BME280;22332;51.954;20.118;2023-04-22T14:26:22;99917.75;;;18.70;37.77
35848;BME280;22332;51.954;20.118;2023-04-22T14:29:28;99920.13;;;18.71;37.59
35848;BME280;22332;51.954;20.118;2023-04-22T14:32:35;99920.41;;;18.71;37.63
35848;BME280;22332;51.954;20.118;2023-04-22T14:35:40;99919.92;;;18.71;37.45
35848;BME280;22332;51.954;20.118;2023-04-22T14:38:46;99920.42;;;18.71;37.64
35848;BME280;22332;51.954;20.118;2023-04-22T14:41:52;99915.66;;;18.71;37.57
35848;BME280;22332;51.954;20.118;2023-04-22T14:44:58;99913.94;;;18.71;37.48
35848;BME280;22332;51.954;20.118;2023-04-22T14:48:04;99912.16;;;18.73;37.82
35848;BME280;22332;51.954;20.118;2023-04-22T14:51:10;99911.90;;;18.75;37.51
35848;BME280;22332;51.954;20.118;2023-04-22T14:54:15;99910.98;;;18.74;37.54
35848;BME280;22332;51.954;20.118;2023-04-22T14:57:21;99907.36;;;18.70;37.23
35848;BME280;22332;51.954;20.118;2023-04-22T15:00:28;99913.15;;;18.68;37.30
35848;BME280;22332;51.954;20.118;2023-04-22T15:03:34;99909.13;;;18.67;37.24
35848;BME280;22332;51.954;20.118;2023-04-22T15:06:40;99907.96;;;18.66;37.39
35848;BME280;22332;51.954;20.118;2023-04-22T15:09:45;99905.22;;;18.65;37.50
35848;BME280;22332;51.954;20.118;2023-04-22T15:12:51;99901.99;;;18.62;37.37
35848;BME280;22332;51.954;20.118;2023-04-22T15:15:57;99900.67;;;18.59;37.31
35848;BME280;22332;51.954;20.118;2023-04-22T15:19:03;99900.80;;;18.57;37.31
35848;BME280;22332;51.954;20.118;2023-04-22T15:22:08;99901.14;;;18.54;37.37
35848;BME280;22332;51.954;20.118;2023-04-22T15:25:14;99897.05;;;18.51;37.24
35848;BME280;22332;51.954;20.118;2023-04-22T15:28:20;99896.73;;;18.47;35.99
35848;BME280;22332;51.954;20.118;2023-04-22T15:31:27;99895.11;;;18.44;36.43
35848;BME280;22332;51.954;20.118;2023-04-22T15:34:33;99894.10;;;18.41;36.80
35848;BME280;22332;51.954;20.118;2023-04-22T15:37:39;99896.89;;;18.39;36.63
35848;BME280;22332;51.954;20.118;2023-04-22T15:40:44;99897.48;;;18.37;36.81
35848;BME280;22332;51.954;20.118;2023-04-22T15:43:51;99901.09;;;18.36;36.89
35848;BME280;22332;51.954;20.118;2023-04-22T15:46:57;99897.25;;;18.32;36.55
35848;BME280;22332;51.954;20.118;2023-04-22T15:50:05;99896.41;;;18.29;36.78
35848;BME280;22332;51.954;20.118;2023-04-22T15:53:11;99895.42;;;18.24;36.82
35848;BME280;22332;51.954;20.118;2023-04-22T15:56:17;99888.64;;;18.18;35.90
35848;BME280;22332;51.954;20.118;2023-04-22T15:59:23;99889.05;;;18.14;36.14
35848;BME280;22332;51.954;20.118;2023-04-22T16:02:29;99887.24;;;18.10;36.08
35848;BME280;22332;51.954;20.118;2023-04-22T16:05:35;99885.88;;;18.08;36.22
35848;BME280;22332;51.954;20.118;2023-04-22T16:08:40;99886.52;;;18.05;36.33
35848;BME280;22332;51.954;20.118;2023-04-22T16:11:46;99887.90;;;18.00;36.34